< Typhoon 200302 2003 Season Typhoon 200304 >
Typhoon 200303 (CHAN-HOM)
General InformationTrack Information on Google MapsDetailed Wind InformationList of All Images || NewsDisaster Info.WeblogResourceGoogle EarthGE AnimationAtom FeedGeoJSON
Detalied Best Track (Time Zone = UTC)
Year Month Day Hour Lat. Long. Pressure (hPa) Wind (kt) Class Image Chart
2003 5 19 00 7.1 150.3 1006 0 2 Image Chart
2003 5 19 06 7.1 150.3 1004 0 2 Image Chart
2003 5 19 12 7.1 150.3 1004 0 2 Image Chart
2003 5 19 18 7.2 150.3 1004 0 2 Image Chart
2003 5 20 00 7.3 150.9 1004 0 2 Image Chart
2003 5 20 06 7.8 151.0 1000 0 2 Image Chart
2003 5 20 12 8.3 150.7 998 35 3 Image Chart
2003 5 20 18 8.6 150.4 996 40 3 Image Chart
2003 5 21 00 8.9 150.4 994 45 3 Image Chart
2003 5 21 06 9.4 150.5 990 50 4 Image Chart
2003 5 21 12 10.0 150.5 985 55 4 Image Chart
2003 5 21 18 10.8 150.6 985 55 4 Image Chart
2003 5 22 00 11.4 150.9 980 55 4 Image Chart
2003 5 22 06 12.6 151.2 980 55 4 Image Chart
2003 5 22 12 13.2 151.4 980 55 4 Image Chart
2003 5 22 18 14.4 151.4 975 60 4 Image Chart
2003 5 23 00 15.0 151.1 975 60 4 Image Chart
2003 5 23 06 15.6 151.3 965 70 5 Image Chart
2003 5 23 12 16.4 151.4 950 80 5 Image Chart
2003 5 23 18 17.4 151.5 940 85 5 Image Chart
2003 5 24 00 18.3 151.4 940 85 5 Image Chart
2003 5 24 06 19.3 152.1 940 85 5 Image Chart
2003 5 24 12 20.0 152.6 940 85 5 Image Chart
2003 5 24 18 21.1 153.8 940 85 5 Image Chart
2003 5 25 00 22.3 154.8 945 75 5 Image Chart
2003 5 25 06 23.6 155.8 950 70 5 Image Chart
2003 5 25 12 25.1 156.8 955 70 5 Image Chart
2003 5 25 18 26.8 157.7 960 70 5 Image Chart
2003 5 26 00 28.4 158.8 965 65 5 Image Chart
2003 5 26 06 30.1 160.6 975 60 4 Image Chart
2003 5 26 12 31.4 162.7 985 50 4 Image Chart
2003 5 26 18 32.8 164.9 985 50 4 Image Chart
2003 5 27 00 33.8 166.9 990 40 3 Image Chart
2003 5 27 06 34.8 169.5 996 0 6 Image Chart
2003 5 27 12 35.6 171.9 996 0 6 Image Chart
2003 5 27 18 35.8 174.4 1000 0 6 Image Chart
2003 5 28 00 35.5 175.7 1008 0 6 Image Chart
2003 5 28 06 35.5 177.7 1012 0 6 Image Chart
Japan Meteorological Agency Best Track Data | Correction Date : 2004-02-17
< Typhoon 200302 2003 Season Typhoon 200304 >

Help